sensor_id;sensor_type;location;lat;lon;timestamp;P1;P2;P0
66004;PMS7003;52775;52.262;21.100;2022-12-24T00:00:07;62;65;
66004;PMS7003;52775;52.262;21.100;2022-12-24T00:00:17;58;60;
66004;PMS7003;52775;52.262;21.100;2022-12-24T00:00:29;60;62;
66004;PMS7003;52775;52.262;21.100;2022-12-24T00:00:40;58;70;
66004;PMS7003;52775;52.262;21.100;2022-12-24T00:00:55;58;67;
66004;PMS7003;52775;52.262;21.100;2022-12-24T00:01:02;50;54;
66004;PMS7003;52775;52.262;21.100;2022-12-24T00:01:15;60;69;
66004;PMS7003;52775;52.262;21.100;2022-12-24T00:01:24;60;67;
66004;PMS7003;52775;52.262;21.100;2022-12-24T00:01:35;55;62;
66004;PMS7003;52775;52.262;21.100;2022-12-24T00:01:46;67;67;
66004;PMS7003;52775;52.262;21.100;2022-12-24T00:01:56;61;67;
66004;PMS7003;52775;52.262;21.100;2022-12-24T00:02:07;60;67;
66004;PMS7003;52775;52.262;21.100;2022-12-24T00:02:18;58;62;
66004;PMS7003;52775;52.262;21.100;2022-12-24T00:02:30;63;72;
66004;PMS7003;52775;52.262;21.100;2022-12-24T00:02:41;58;65;
66004;PMS7003;52775;52.262;21.100;2022-12-24T00:02:52;53;64;
66004;PMS7003;52775;52.262;21.100;2022-12-24T00:03:03;53;63;
66004;PMS7003;52775;52.262;21.100;2022-12-24T00:03:16;58;62;
66004;PMS7003;52775;52.262;21.100;2022-12-24T00:03:25;61;65;
66004;PMS7003;52775;52.262;21.100;2022-12-24T00:03:36;62;69;
66004;PMS7003;52775;52.262;21.100;2022-12-24T00:03:46;61;70;
66004;PMS7003;52775;52.262;21.100;2022-12-24T00:03:58;53;68;
66004;PMS7003;52775;52.262;21.100;2022-12-24T00:04:09;65;73;
66004;PMS7003;52775;52.262;21.100;2022-12-24T00:04:20;61;64;
66004;PMS7003;52775;52.262;21.100;2022-12-24T00:04:30;61;63;
66004;PMS7003;52775;52.262;21.100;2022-12-24T00:04:41;62;64;
66004;PMS7003;52775;52.262;21.100;2022-12-24T00:04:53;59;60;
66004;PMS7003;52775;52.262;21.100;2022-12-24T00:05:04;59;65;
66004;PMS7003;52775;52.262;21.100;2022-12-24T00:05:15;62;68;
66004;PMS7003;52775;52.262;21.100;2022-12-24T00:05:26;60;64;
66004;PMS7003;52775;52.262;21.100;2022-12-24T00:05:37;63;64;
66004;PMS7003;52775;52.262;21.100;2022-12-24T00:05:48;59;63;
66004;PMS7003;52775;52.262;21.100;2022-12-24T00:06:02;52;60;
66004;PMS7003;52775;52.262;21.100;2022-12-24T00:06:14;53;60;
66004;PMS7003;52775;52.262;21.100;2022-12-24T00:06:21;59;64;
66004;PMS7003;52775;52.262;21.100;2022-12-24T00:06:32;51;54;
66004;PMS7003;52775;52.262;21.100;2022-12-24T00:06:43;43;48;
66004;PMS7003;52775;52.262;21.100;2022-12-24T00:06:54;55;64;
66004;PMS7003;52775;52.262;21.100;2022-12-24T00:07:06;63;71;
66004;PMS7003;52775;52.262;21.100;2022-12-24T00:07:16;59;65;
66004;PMS7003;52775;52.262;21.100;2022-12-24T00:07:26;58;63;
66004;PMS7003;52775;52.262;21.100;2022-12-24T00:07:38;60;61;
66004;PMS7003;52775;52.262;21.100;2022-12-24T00:07:48;62;68;
66004;PMS7003;52775;52.262;21.100;2022-12-24T00:08:00;60;64;
66004;PMS7003;52775;52.262;21.100;2022-12-24T00:08:11;60;64;
66004;PMS7003;52775;52.262;21.100;2022-12-24T00:08:22;64;73;
66004;PMS7003;52775;52.262;21.100;2022-12-24T00:08:33;64;68;
66004;PMS7003;52775;52.262;21.100;2022-12-24T00:08:45;61;63;
66004;PMS7003;52775;52.262;21.100;2022-12-24T00:08:54;61;70;
66004;PMS7003;52775;52.262;21.100;2022-12-24T00:09:05;64;73;
66004;PMS7003;52775;52.262;21.100;2022-12-24T00:09:21;63;71;
66004;PMS7003;52775;52.262;21.100;2022-12-24T00:09:29;70;84;
66004;PMS7003;52775;52.262;21.100;2022-12-24T00:09:39;64;79;
66004;PMS7003;52775;52.262;21.100;2022-12-24T00:09:50;78;83;
66004;PMS7003;52775;52.262;21.100;2022-12-24T00:10:02;71;81;
66004;PMS7003;52775;52.262;21.100;2022-12-24T00:10:12;80;84;
66004;PMS7003;52775;52.262;21.100;2022-12-24T00:10:22;69;81;
66004;PMS7003;52775;52.262;21.100;2022-12-24T00:10:33;65;78;
66004;PMS7003;52775;52.262;21.100;2022-12-24T00:10:48;67;73;
66004;PMS7003;52775;52.262;21.100;2022-12-24T00:10:55;70;72;
66004;PMS7003;52775;52.262;21.100;2022-12-24T00:11:07;64;73;
66004;PMS7003;52775;52.262;21.100;2022-12-24T00:11:19;71;81;
66004;PMS7003;52775;52.262;21.100;2022-12-24T00:11:28;70;84;
66004;PMS7003;52775;52.262;21.100;2022-12-24T00:11:39;63;70;
66004;PMS7003;52775;52.262;21.100;2022-12-24T00:11:51;63;71;
66004;PMS7003;52775;52.262;21.100;2022-12-24T00:12:02;69;85;
66004;PMS7003;52775;52.262;21.100;2022-12-24T00:12:13;74;83;
66004;PMS7003;52775;52.262;21.100;2022-12-24T00:12:24;73;80;
66004;PMS7003;52775;52.262;21.100;2022-12-24T00:12:35;82;87;
66004;PMS7003;52775;52.262;21.100;2022-12-24T00:12:46;74;78;
66004;PMS7003;52775;52.262;21.100;2022-12-24T00:12:57;71;81;
66004;PMS7003;52775;52.262;21.100;2022-12-24T00:13:07;79;88;
66004;PMS7003;52775;52.262;21.100;2022-12-24T00:13:18;74;84;
66004;PMS7003;52775;52.262;21.100;2022-12-24T00:13:30;79;92;
66004;PMS7003;52775;52.262;21.100;2022-12-24T00:13:42;78;84;
66004;PMS7003;52775;52.262;21.100;2022-12-24T00:13:53;73;81;
66004;PMS7003;52775;52.262;21.100;2022-12-24T00:14:02;72;79;
66004;PMS7003;52775;52.262;21.100;2022-12-24T00:14:14;73;82;
66004;PMS7003;52775;52.262;21.100;2022-12-24T00:14:25;83;94;
66004;PMS7003;52775;52.262;21.100;2022-12-24T00:14:36;78;85;
66004;PMS7003;52775;52.262;21.100;2022-12-24T00:14:47;80;93;
66004;PMS7003;52775;52.262;21.100;2022-12-24T00:14:58;84;100;
66004;PMS7003;52775;52.262;21.100;2022-12-24T00:15:09;79;90;
66004;PMS7003;52775;52.262;21.100;2022-12-24T00:15:21;80;88;
66004;PMS7003;52775;52.262;21.100;2022-12-24T00:15:31;78;84;
66004;PMS7003;52775;52.262;21.100;2022-12-24T00:15:42;81;94;
66004;PMS7003;52775;52.262;21.100;2022-12-24T00:15:53;83;89;
66004;PMS7003;52775;52.262;21.100;2022-12-24T00:16:04;83;100;
66004;PMS7003;52775;52.262;21.100;2022-12-24T00:16:15;79;89;
66004;PMS7003;52775;52.262;21.100;2022-12-24T00:16:25;73;82;
66004;PMS7003;52775;52.262;21.100;2022-12-24T00:16:37;80;89;
66004;PMS7003;52775;52.262;21.100;2022-12-24T00:16:48;81;88;
66004;PMS7003;52775;52.262;21.100;2022-12-24T00:16:59;78;89;
66004;PMS7003;52775;52.262;21.100;2022-12-24T00:17:10;70;78;
66004;PMS7003;52775;52.262;21.100;2022-12-24T00:17:22;72;88;
66004;PMS7003;52775;52.262;21.100;2022-12-24T00:17:32;72;88;
66004;PMS7003;52775;52.262;21.100;2022-12-24T00:17:42;65;80;
66004;PMS7003;52775;52.262;21.100;2022-12-24T00:17:53;78;85;
66004;PMS7003;52775;52.262;21.100;2022-12-24T00:18:05;78;83;
66004;PMS7003;52775;52.262;21.100;2022-12-24T00:18:16;74;80;
66004;PMS7003;52775;52.262;21.100;2022-12-24T00:18:27;70;82;
66004;PMS7003;52775;52.262;21.100;2022-12-24T00:18:38;72;82;
66004;PMS7003;52775;52.262;21.100;2022-12-24T00:18:49;74;82;
66004;PMS7003;52775;52.262;21.100;2022-12-24T00:18:59;64;73;
66004;PMS7003;52775;52.262;21.100;2022-12-24T00:19:11;68;80;
66004;PMS7003;52775;52.262;21.100;2022-12-24T00:19:21;64;68;
66004;PMS7003;52775;52.262;21.100;2022-12-24T00:19:33;62;64;
66004;PMS7003;52775;52.262;21.100;2022-12-24T00:19:44;63;68;
66004;PMS7003;52775;52.262;21.100;2022-12-24T00:19:55;61;70;
66004;PMS7003;52775;52.262;21.100;2022-12-24T00:20:06;61;64;
66004;PMS7003;52775;52.262;21.100;2022-12-24T00:20:17;58;60;
66004;PMS7003;52775;52.262;21.100;2022-12-24T00:20:28;60;65;
66004;PMS7003;52775;52.262;21.100;2022-12-24T00:20:39;55;64;
66004;PMS7003;52775;52.262;21.100;2022-12-24T00:20:50;54;62;
66004;PMS7003;52775;52.262;21.100;2022-12-24T00:21:01;58;65;
66004;PMS7003;52775;52.262;21.100;2022-12-24T00:21:12;54;61;
66004;PMS7003;52775;52.262;21.100;2022-12-24T00:21:23;50;58;
66004;PMS7003;52775;52.262;21.100;2022-12-24T00:21:34;51;59;
66004;PMS7003;52775;52.262;21.100;2022-12-24T00:21:45;53;63;
66004;PMS7003;52775;52.262;21.100;2022-12-24T00:21:55;51;61;
66004;PMS7003;52775;52.262;21.100;2022-12-24T00:22:07;52;61;
66004;PMS7003;52775;52.262;21.100;2022-12-24T00:22:17;53;55;
66004;PMS7003;52775;52.262;21.100;2022-12-24T00:22:29;54;64;
66004;PMS7003;52775;52.262;21.100;2022-12-24T00:22:40;53;62;
66004;PMS7003;52775;52.262;21.100;2022-12-24T00:22:50;49;52;
66004;PMS7003;52775;52.262;21.100;2022-12-24T00:23:02;52;58;
66004;PMS7003;52775;52.262;21.100;2022-12-24T00:23:13;45;52;
66004;PMS7003;52775;52.262;21.100;2022-12-24T00:23:24;48;55;
66004;PMS7003;52775;52.262;21.100;2022-12-24T00:23:34;50;54;
66004;PMS7003;52775;52.262;21.100;2022-12-24T00:23:46;53;60;
66004;PMS7003;52775;52.262;21.100;2022-12-24T00:23:56;60;62;
66004;PMS7003;52775;52.262;21.100;2022-12-24T00:24:08;50;54;
66004;PMS7003;52775;52.262;21.100;2022-12-24T00:24:19;48;51;
66004;PMS7003;52775;52.262;21.100;2022-12-24T00:24:30;49;55;
66004;PMS7003;52775;52.262;21.100;2022-12-24T00:24:41;51;55;
66004;PMS7003;52775;52.262;21.100;2022-12-24T00:24:52;60;62;
66004;PMS7003;52775;52.262;21.100;2022-12-24T00:25:03;59;62;
66004;PMS7003;52775;52.262;21.100;2022-12-24T00:25:14;54;58;
66004;PMS7003;52775;52.262;21.100;2022-12-24T00:25:25;55;63;
66004;PMS7003;52775;52.262;21.100;2022-12-24T00:25:36;53;60;
66004;PMS7003;52775;52.262;21.100;2022-12-24T00:25:47;64;65;
66004;PMS7003;52775;52.262;21.100;2022-12-24T00:25:58;59;65;
66004;PMS7003;52775;52.262;21.100;2022-12-24T00:26:10;53;61;
66004;PMS7003;52775;52.262;21.100;2022-12-24T00:26:20;50;55;
66004;PMS7003;52775;52.262;21.100;2022-12-24T00:26:31;49;53;
66004;PMS7003;52775;52.262;21.100;2022-12-24T00:26:42;59;64;
66004;PMS7003;52775;52.262;21.100;2022-12-24T00:26:53;60;64;
66004;PMS7003;52775;52.262;21.100;2022-12-24T00:27:04;60;65;
66004;PMS7003;52775;52.262;21.100;2022-12-24T00:27:15;58;63;
66004;PMS7003;52775;52.262;21.100;2022-12-24T00:27:26;55;62;
66004;PMS7003;52775;52.262;21.100;2022-12-24T00:27:37;53;59;
66004;PMS7003;52775;52.262;21.100;2022-12-24T00:27:47;61;63;
66004;PMS7003;52775;52.262;21.100;2022-12-24T00:27:59;59;63;
66004;PMS7003;52775;52.262;21.100;2022-12-24T00:28:09;60;69;
66004;PMS7003;52775;52.262;21.100;2022-12-24T00:28:21;58;63;
66004;PMS7003;52775;52.262;21.100;2022-12-24T00:28:32;54;58;
66004;PMS7003;52775;52.262;21.100;2022-12-24T00:28:43;61;65;
66004;PMS7003;52775;52.262;21.100;2022-12-24T00:28:54;63;68;
66004;PMS7003;52775;52.262;21.100;2022-12-24T00:29:05;58;63;
66004;PMS7003;52775;52.262;21.100;2022-12-24T00:29:15;63;64;
66004;PMS7003;52775;52.262;21.100;2022-12-24T00:29:26;58;62;
66004;PMS7003;52775;52.262;21.100;2022-12-24T00:29:38;60;65;
66004;PMS7003;52775;52.262;21.100;2022-12-24T00:29:48;65;72;
66004;PMS7003;52775;52.262;21.100;2022-12-24T00:30:03;64;79;
66004;PMS7003;52775;52.262;21.100;2022-12-24T00:30:13;62;68;
66004;PMS7003;52775;52.262;21.100;2022-12-24T00:30:22;58;67;
66004;PMS7003;52775;52.262;21.100;2022-12-24T00:30:33;64;72;
66004;PMS7003;52775;52.262;21.100;2022-12-24T00:30:43;61;65;
66004;PMS7003;52775;52.262;21.100;2022-12-24T00:30:55;59;67;
66004;PMS7003;52775;52.262;21.100;2022-12-24T00:31:07;62;69;
66004;PMS7003;52775;52.262;21.100;2022-12-24T00:31:17;61;67;
66004;PMS7003;52775;52.262;21.100;2022-12-24T00:31:27;55;62;
66004;PMS7003;52775;52.262;21.100;2022-12-24T00:31:39;52;62;
66004;PMS7003;52775;52.262;21.100;2022-12-24T00:31:49;53;63;
66004;PMS7003;52775;52.262;21.100;2022-12-24T00:32:00;62;70;
66004;PMS7003;52775;52.262;21.100;2022-12-24T00:32:12;59;60;
66004;PMS7003;52775;52.262;21.100;2022-12-24T00:32:23;60;65;
66004;PMS7003;52775;52.262;21.100;2022-12-24T00:32:33;55;61;
66004;PMS7003;52775;52.262;21.100;2022-12-24T00:32:44;53;55;
66004;PMS7003;52775;52.262;21.100;2022-12-24T00:32:55;49;52;
66004;PMS7003;52775;52.262;21.100;2022-12-24T00:33:07;50;52;
66004;PMS7003;52775;52.262;21.100;2022-12-24T00:33:17;48;52;
66004;PMS7003;52775;52.262;21.100;2022-12-24T00:33:29;51;54;
66004;PMS7003;52775;52.262;21.100;2022-12-24T00:33:39;58;60;
66004;PMS7003;52775;52.262;21.100;2022-12-24T00:33:51;52;55;
66004;PMS7003;52775;52.262;21.100;2022-12-24T00:34:02;53;61;
66004;PMS7003;52775;52.262;21.100;2022-12-24T00:34:13;53;63;
66004;PMS7003;52775;52.262;21.100;2022-12-24T00:34:23;54;69;
66004;PMS7003;52775;52.262;21.100;2022-12-24T00:34:35;59;69;
66004;PMS7003;52775;52.262;21.100;2022-12-24T00:34:46;52;58;
66004;PMS7003;52775;52.262;21.100;2022-12-24T00:34:56;59;60;
66004;PMS7003;52775;52.262;21.100;2022-12-24T00:35:09;60;62;
66004;PMS7003;52775;52.262;21.100;2022-12-24T00:35:19;59;64;
66004;PMS7003;52775;52.262;21.100;2022-12-24T00:35:32;53;63;
66004;PMS7003;52775;52.262;21.100;2022-12-24T00:35:40;54;59;
66004;PMS7003;52775;52.262;21.100;2022-12-24T00:35:51;55;59;
66004;PMS7003;52775;52.262;21.100;2022-12-24T00:36:04;58;62;
66004;PMS7003;52775;52.262;21.100;2022-12-24T00:36:14;52;58;
66004;PMS7003;52775;52.262;21.100;2022-12-24T00:36:25;54;62;
66004;PMS7003;52775;52.262;21.100;2022-12-24T00:36:36;58;63;
66004;PMS7003;52775;52.262;21.100;2022-12-24T00:36:47;55;64;
66004;PMS7003;52775;52.262;21.100;2022-12-24T00:36:57;58;67;
66004;PMS7003;52775;52.262;21.100;2022-12-24T00:37:09;53;61;
66004;PMS7003;52775;52.262;21.100;2022-12-24T00:37:20;50;54;
66004;PMS7003;52775;52.262;21.100;2022-12-24T00:37:30;51;60;
66004;PMS7003;52775;52.262;21.100;2022-12-24T00:37:45;53;59;
66004;PMS7003;52775;52.262;21.100;2022-12-24T00:37:52;54;59;
66004;PMS7003;52775;52.262;21.100;2022-12-24T00:38:04;54;60;
66004;PMS7003;52775;52.262;21.100;2022-12-24T00:38:15;62;74;
66004;PMS7003;52775;52.262;21.100;2022-12-24T00:38:25;60;70;
66004;PMS7003;52775;52.262;21.100;2022-12-24T00:38:37;58;63;
66004;PMS7003;52775;52.262;21.100;2022-12-24T00:38:48;53;61;
66004;PMS7003;52775;52.262;21.100;2022-12-24T00:38:59;55;64;
66004;PMS7003;52775;52.262;21.100;2022-12-24T00:39:10;59;64;
66004;PMS7003;52775;52.262;21.100;2022-12-24T00:39:21;61;62;
66004;PMS7003;52775;52.262;21.100;2022-12-24T00:39:32;55;62;
66004;PMS7003;52775;52.262;21.100;2022-12-24T00:39:43;60;63;
66004;PMS7003;52775;52.262;21.100;2022-12-24T00:39:54;59;63;
66004;PMS7003;52775;52.262;21.100;2022-12-24T00:40:04;61;65;
66004;PMS7003;52775;52.262;21.100;2022-12-24T00:40:16;63;70;
66004;PMS7003;52775;52.262;21.100;2022-12-24T00:40:26;59;63;
66004;PMS7003;52775;52.262;21.100;2022-12-24T00:40:38;63;71;
66004;PMS7003;52775;52.262;21.100;2022-12-24T00:40:48;62;67;
66004;PMS7003;52775;52.262;21.100;2022-12-24T00:41:01;69;73;
66004;PMS7003;52775;52.262;21.100;2022-12-24T00:41:11;67;74;
66004;PMS7003;52775;52.262;21.100;2022-12-24T00:41:21;62;69;
66004;PMS7003;52775;52.262;21.100;2022-12-24T00:41:33;69;73;
66004;PMS7003;52775;52.262;21.100;2022-12-24T00:41:44;70;80;
66004;PMS7003;52775;52.262;21.100;2022-12-24T00:41:55;73;83;
66004;PMS7003;52775;52.262;21.100;2022-12-24T00:42:06;70;80;
66004;PMS7003;52775;52.262;21.100;2022-12-24T00:42:17;64;71;
66004;PMS7003;52775;52.262;21.100;2022-12-24T00:42:28;69;72;
66004;PMS7003;52775;52.262;21.100;2022-12-24T00:42:39;68;84;
66004;PMS7003;52775;52.262;21.100;2022-12-24T00:42:51;67;80;
66004;PMS7003;52775;52.262;21.100;2022-12-24T00:43:01;69;74;
66004;PMS7003;52775;52.262;21.100;2022-12-24T00:43:13;65;72;
66004;PMS7003;52775;52.262;21.100;2022-12-24T00:43:23;64;71;
66004;PMS7003;52775;52.262;21.100;2022-12-24T00:43:35;67;71;
66004;PMS7003;52775;52.262;21.100;2022-12-24T00:43:46;62;74;
66004;PMS7003;52775;52.262;21.100;2022-12-24T00:43:57;69;74;
66004;PMS7003;52775;52.262;21.100;2022-12-24T00:44:09;73;80;
66004;PMS7003;52775;52.262;21.100;2022-12-24T00:44:19;74;84;
66004;PMS7003;52775;52.262;21.100;2022-12-24T00:44:29;67;85;
66004;PMS7003;52775;52.262;21.100;2022-12-24T00:44:41;73;89;
66004;PMS7003;52775;52.262;21.100;2022-12-24T00:44:52;69;72;
66004;PMS7003;52775;52.262;21.100;2022-12-24T00:45:03;65;69;
66004;PMS7003;52775;52.262;21.100;2022-12-24T00:45:14;69;79;
66004;PMS7003;52775;52.262;21.100;2022-12-24T00:45:25;79;94;
66004;PMS7003;52775;52.262;21.100;2022-12-24T00:45:36;68;73;
66004;PMS7003;52775;52.262;21.100;2022-12-24T00:45:47;71;80;
66004;PMS7003;52775;52.262;21.100;2022-12-24T00:45:58;67;81;
66004;PMS7003;52775;52.262;21.100;2022-12-24T00:46:08;68;74;
66004;PMS7003;52775;52.262;21.100;2022-12-24T00:46:19;69;78;
66004;PMS7003;52775;52.262;21.100;2022-12-24T00:46:31;68;85;
66004;PMS7003;52775;52.262;21.100;2022-12-24T00:46:42;59;63;
66004;PMS7003;52775;52.262;21.100;2022-12-24T00:46:53;58;63;
66004;PMS7003;52775;52.262;21.100;2022-12-24T00:47:04;64;73;
66004;PMS7003;52775;52.262;21.100;2022-12-24T00:47:15;64;67;
66004;PMS7003;52775;52.262;21.100;2022-12-24T00:47:26;59;62;
66004;PMS7003;52775;52.262;21.100;2022-12-24T00:47:37;60;64;
66004;PMS7003;52775;52.262;21.100;2022-12-24T00:47:48;60;65;
66004;PMS7003;52775;52.262;21.100;2022-12-24T00:48:01;67;72;
66004;PMS7003;52775;52.262;21.100;2022-12-24T00:48:10;63;74;
66004;PMS7003;52775;52.262;21.100;2022-12-24T00:48:21;62;73;
66004;PMS7003;52775;52.262;21.100;2022-12-24T00:48:32;62;72;
66004;PMS7003;52775;52.262;21.100;2022-12-24T00:48:42;55;64;
66004;PMS7003;52775;52.262;21.100;2022-12-24T00:48:54;53;67;
66004;PMS7003;52775;52.262;21.100;2022-12-24T00:49:06;59;65;
66004;PMS7003;52775;52.262;21.100;2022-12-24T00:49:16;65;80;
66004;PMS7003;52775;52.262;21.100;2022-12-24T00:49:27;69;74;
66004;PMS7003;52775;52.262;21.100;2022-12-24T00:49:38;64;68;
66004;PMS7003;52775;52.262;21.100;2022-12-24T00:49:49;63;63;
66004;PMS7003;52775;52.262;21.100;2022-12-24T00:49:59;65;73;
66004;PMS7003;52775;52.262;21.100;2022-12-24T00:50:11;69;80;
66004;PMS7003;52775;52.262;21.100;2022-12-24T00:50:22;64;71;
66004;PMS7003;52775;52.262;21.100;2022-12-24T00:50:33;69;78;
66004;PMS7003;52775;52.262;21.100;2022-12-24T00:50:44;73;81;
66004;PMS7003;52775;52.262;21.100;2022-12-24T00:50:55;71;74;
66004;PMS7003;52775;52.262;21.100;2022-12-24T00:51:06;68;79;
66004;PMS7003;52775;52.262;21.100;2022-12-24T00:51:17;69;81;
66004;PMS7003;52775;52.262;21.100;2022-12-24T00:51:28;72;84;
66004;PMS7003;52775;52.262;21.100;2022-12-24T00:51:39;64;74;
66004;PMS7003;52775;52.262;21.100;2022-12-24T00:51:50;65;72;
66004;PMS7003;52775;52.262;21.100;2022-12-24T00:52:01;70;79;
66004;PMS7003;52775;52.262;21.100;2022-12-24T00:52:12;72;79;
66004;PMS7003;52775;52.262;21.100;2022-12-24T00:52:29;68;71;
66004;PMS7003;52775;52.262;21.100;2022-12-24T00:52:33;65;81;
66004;PMS7003;52775;52.262;21.100;2022-12-24T00:52:45;71;88;
66004;PMS7003;52775;52.262;21.100;2022-12-24T00:52:55;70;83;
66004;PMS7003;52775;52.262;21.100;2022-12-24T00:53:07;63;81;
66004;PMS7003;52775;52.262;21.100;2022-12-24T00:53:18;67;87;
66004;PMS7003;52775;52.262;21.100;2022-12-24T00:53:29;71;80;
66004;PMS7003;52775;52.262;21.100;2022-12-24T00:53:40;67;78;
66004;PMS7003;52775;52.262;21.100;2022-12-24T00:53:52;63;72;
66004;PMS7003;52775;52.262;21.100;2022-12-24T00:54:01;64;72;
66004;PMS7003;52775;52.262;21.100;2022-12-24T00:54:13;70;81;
66004;PMS7003;52775;52.262;21.100;2022-12-24T00:54:24;69;83;
66004;PMS7003;52775;52.262;21.100;2022-12-24T00:54:35;65;74;
66004;PMS7003;52775;52.262;21.100;2022-12-24T00:54:46;70;80;
66004;PMS7003;52775;52.262;21.100;2022-12-24T00:54:58;73;80;
66004;PMS7003;52775;52.262;21.100;2022-12-24T00:55:08;70;79;
66004;PMS7003;52775;52.262;21.100;2022-12-24T00:55:19;70;78;
66004;PMS7003;52775;52.262;21.100;2022-12-24T00:55:30;67;70;
66004;PMS7003;52775;52.262;21.100;2022-12-24T00:55:41;69;74;
66004;PMS7003;52775;52.262;21.100;2022-12-24T00:55:52;69;73;
66004;PMS7003;52775;52.262;21.100;2022-12-24T00:56:03;72;78;
66004;PMS7003;52775;52.262;21.100;2022-12-24T00:56:14;68;73;
66004;PMS7003;52775;52.262;21.100;2022-12-24T00:56:25;61;72;
66004;PMS7003;52775;52.262;21.100;2022-12-24T00:56:36;59;67;
66004;PMS7003;52775;52.262;21.100;2022-12-24T00:56:47;62;70;
66004;PMS7003;52775;52.262;21.100;2022-12-24T00:56:58;70;88;
66004;PMS7003;52775;52.262;21.100;2022-12-24T00:57:09;69;72;
66004;PMS7003;52775;52.262;21.100;2022-12-24T00:57:20;63;70;
66004;PMS7003;52775;52.262;21.100;2022-12-24T00:57:31;70;83;
66004;PMS7003;52775;52.262;21.100;2022-12-24T00:57:42;71;83;
66004;PMS7003;52775;52.262;21.100;2022-12-24T00:57:52;67;72;
66004;PMS7003;52775;52.262;21.100;2022-12-24T00:58:04;63;68;
66004;PMS7003;52775;52.262;21.100;2022-12-24T00:58:15;67;71;
66004;PMS7003;52775;52.262;21.100;2022-12-24T00:58:26;70;83;
66004;PMS7003;52775;52.262;21.100;2022-12-24T00:58:37;59;64;
66004;PMS7003;52775;52.262;21.100;2022-12-24T00:58:47;61;64;
66004;PMS7003;52775;52.262;21.100;2022-12-24T00:58:59;68;70;
66004;PMS7003;52775;52.262;21.100;2022-12-24T00:59:09;63;71;
66004;PMS7003;52775;52.262;21.100;2022-12-24T00:59:21;58;65;
66004;PMS7003;52775;52.262;21.100;2022-12-24T00:59:32;61;78;
66004;PMS7003;52775;52.262;21.100;2022-12-24T00:59:42;65;67;
66004;PMS7003;52775;52.262;21.100;2022-12-24T00:59:54;69;72;
66004;PMS7003;52775;52.262;21.100;2022-12-24T01:00:05;67;71;
66004;PMS7003;52775;52.262;21.100;2022-12-24T01:00:15;68;73;
66004;PMS7003;52775;52.262;21.100;2022-12-24T01:00:26;78;90;
66004;PMS7003;52775;52.262;21.100;2022-12-24T01:00:38;74;83;
66004;PMS7003;52775;52.262;21.100;2022-12-24T01:00:49;67;80;
66004;PMS7003;52775;52.262;21.100;2022-12-24T01:01:00;72;84;
66004;PMS7003;52775;52.262;21.100;2022-12-24T01:01:11;70;74;
66004;PMS7003;52775;52.262;21.100;2022-12-24T01:01:22;74;84;
66004;PMS7003;52775;52.262;21.100;2022-12-24T01:01:32;70;80;
66004;PMS7003;52775;52.262;21.100;2022-12-24T01:01:44;71;79;
66004;PMS7003;52775;52.262;21.100;2022-12-24T01:01:54;63;74;
66004;PMS7003;52775;52.262;21.100;2022-12-24T01:02:05;69;78;
66004;PMS7003;52775;52.262;21.100;2022-12-24T01:02:17;70;80;
66004;PMS7003;52775;52.262;21.100;2022-12-24T01:02:28;70;73;
66004;PMS7003;52775;52.262;21.100;2022-12-24T01:02:38;65;80;
66004;PMS7003;52775;52.262;21.100;2022-12-24T01:02:49;63;83;
66004;PMS7003;52775;52.262;21.100;2022-12-24T01:03:01;67;81;
66004;PMS7003;52775;52.262;21.100;2022-12-24T01:03:13;70;80;
66004;PMS7003;52775;52.262;21.100;2022-12-24T01:03:22;68;79;
66004;PMS7003;52775;52.262;21.100;2022-12-24T01:03:34;69;78;
66004;PMS7003;52775;52.262;21.100;2022-12-24T01:03:45;64;71;
66004;PMS7003;52775;52.262;21.100;2022-12-24T01:03:56;64;69;
66004;PMS7003;52775;52.262;21.100;2022-12-24T01:04:07;68;72;
66004;PMS7003;52775;52.262;21.100;2022-12-24T01:04:18;68;83;
66004;PMS7003;52775;52.262;21.100;2022-12-24T01:04:29;68;71;
66004;PMS7003;52775;52.262;21.100;2022-12-24T01:04:40;68;74;
66004;PMS7003;52775;52.262;21.100;2022-12-24T01:04:51;65;69;
66004;PMS7003;52775;52.262;21.100;2022-12-24T01:05:01;67;70;
66004;PMS7003;52775;52.262;21.100;2022-12-24T01:05:12;69;73;
66004;PMS7003;52775;52.262;21.100;2022-12-24T01:05:24;79;82;
66004;PMS7003;52775;52.262;21.100;2022-12-24T01:05:35;83;97;
66004;PMS7003;52775;52.262;21.100;2022-12-24T01:05:45;79;93;
66004;PMS7003;52775;52.262;21.100;2022-12-24T01:05:56;82;94;
66004;PMS7003;52775;52.262;21.100;2022-12-24T01:06:09;82;92;
66004;PMS7003;52775;52.262;21.100;2022-12-24T01:06:20;78;92;
66004;PMS7003;52775;52.262;21.100;2022-12-24T01:06:31;71;83;
66004;PMS7003;52775;52.262;21.100;2022-12-24T01:06:41;71;79;
66004;PMS7003;52775;52.262;21.100;2022-12-24T01:06:51;67;78;
66004;PMS7003;52775;52.262;21.100;2022-12-24T01:07:02;67;71;
66004;PMS7003;52775;52.262;21.100;2022-12-24T01:07:13;68;70;
66004;PMS7003;52775;52.262;21.100;2022-12-24T01:07:25;64;69;
66004;PMS7003;52775;52.262;21.100;2022-12-24T01:07:36;65;68;
66004;PMS7003;52775;52.262;21.100;2022-12-24T01:07:47;63;67;
66004;PMS7003;52775;52.262;21.100;2022-12-24T01:07:58;65;73;
66004;PMS7003;52775;52.262;21.100;2022-12-24T01:08:09;64;67;
66004;PMS7003;52775;52.262;21.100;2022-12-24T01:08:21;63;68;
66004;PMS7003;52775;52.262;21.100;2022-12-24T01:08:32;65;70;
66004;PMS7003;52775;52.262;21.100;2022-12-24T01:08:43;63;67;
66004;PMS7003;52775;52.262;21.100;2022-12-24T01:08:53;67;81;
66004;PMS7003;52775;52.262;21.100;2022-12-24T01:09:05;68;79;
66004;PMS7003;52775;52.262;21.100;2022-12-24T01:09:16;68;74;
66004;PMS7003;52775;52.262;21.100;2022-12-24T01:09:27;63;69;
66004;PMS7003;52775;52.262;21.100;2022-12-24T01:09:39;64;71;
66004;PMS7003;52775;52.262;21.100;2022-12-24T01:09:48;61;68;
66004;PMS7003;52775;52.262;21.100;2022-12-24T01:10:00;64;70;
66004;PMS7003;52775;52.262;21.100;2022-12-24T01:10:11;71;80;
66004;PMS7003;52775;52.262;21.100;2022-12-24T01:10:22;67;80;
66004;PMS7003;52775;52.262;21.100;2022-12-24T01:10:33;78;87;
66004;PMS7003;52775;52.262;21.100;2022-12-24T01:10:44;67;79;
66004;PMS7003;52775;52.262;21.100;2022-12-24T01:10:54;65;69;
66004;PMS7003;52775;52.262;21.100;2022-12-24T01:11:05;70;73;
66004;PMS7003;52775;52.262;21.100;2022-12-24T01:11:17;69;78;
66004;PMS7003;52775;52.262;21.100;2022-12-24T01:11:27;67;79;
66004;PMS7003;52775;52.262;21.100;2022-12-24T01:11:39;68;72;
66004;PMS7003;52775;52.262;21.100;2022-12-24T01:11:49;68;81;